sensor_id;sensor_type;location;lat;lon;timestamp;pressure;altitude;pressure_sealevel;temperature;humidity
22181;BME280;11256;50.830;12.834;2022-07-06T00:04:58;98082.38;;;23.06;43.89
22181;BME280;11256;50.830;12.834;2022-07-06T00:09:58;98099.69;;;23.03;44.00
22181;BME280;11256;50.830;12.834;2022-07-06T00:14:58;98100.78;;;22.99;44.28
22181;BME280;11256;50.830;12.834;2022-07-06T00:19:59;98099.38;;;22.93;44.68
22181;BME280;11256;50.830;12.834;2022-07-06T00:24:59;98089.28;;;22.85;44.51
22181;BME280;11256;50.830;12.834;2022-07-06T00:30:00;98082.38;;;22.79;44.96
22181;BME280;11256;50.830;12.834;2022-07-06T00:35:00;98076.06;;;22.66;44.96
22181;BME280;11256;50.830;12.834;2022-07-06T00:40:00;98087.94;;;22.67;45.54
22181;BME280;11256;50.830;12.834;2022-07-06T00:45:01;98092.44;;;22.59;45.41
22181;BME280;11256;50.830;12.834;2022-07-06T00:50:03;98079.94;;;22.50;45.50
22181;BME280;11256;50.830;12.834;2022-07-06T00:55:21;98081.63;;;22.42;46.27
22181;BME280;11256;50.830;12.834;2022-07-06T01:00:25;98081.03;;;22.37;45.71
22181;BME280;11256;50.830;12.834;2022-07-06T01:05:26;98079.22;;;22.29;45.89
22181;BME280;11256;50.830;12.834;2022-07-06T01:10:26;98071.94;;;22.24;46.18
22181;BME280;11256;50.830;12.834;2022-07-06T01:15:27;98057.16;;;22.17;46.44
22181;BME280;11256;50.830;12.834;2022-07-06T01:20:28;98057.72;;;22.10;46.31
22181;BME280;11256;50.830;12.834;2022-07-06T01:25:29;98060.69;;;22.05;46.74
22181;BME280;11256;50.830;12.834;2022-07-06T01:30:29;98054.13;;;21.98;46.57
22181;BME280;11256;50.830;12.834;2022-07-06T01:35:31;98055.53;;;21.92;46.63
22181;BME280;11256;50.830;12.834;2022-07-06T01:40:33;98055.63;;;21.83;46.96
22181;BME280;11256;50.830;12.834;2022-07-06T01:45:34;98044.72;;;21.75;47.05
22181;BME280;11256;50.830;12.834;2022-07-06T01:50:34;98035.69;;;21.66;47.48
22181;BME280;11256;50.830;12.834;2022-07-06T01:55:35;98031.53;;;21.60;47.21
22181;BME280;11256;50.830;12.834;2022-07-06T02:00:36;98043.41;;;21.60;47.42
22181;BME280;11256;50.830;12.834;2022-07-06T02:05:36;98042.78;;;21.55;47.63
22181;BME280;11256;50.830;12.834;2022-07-06T02:10:38;98030.50;;;21.52;47.82
22181;BME280;11256;50.830;12.834;2022-07-06T02:15:40;98037.97;;;21.52;47.09
22181;BME280;11256;50.830;12.834;2022-07-06T02:20:41;98042.78;;;21.43;47.64
22181;BME280;11256;50.830;12.834;2022-07-06T02:25:42;98041.19;;;21.42;47.40
22181;BME280;11256;50.830;12.834;2022-07-06T02:30:42;98044.16;;;21.37;47.96
22181;BME280;11256;50.830;12.834;2022-07-06T02:35:44;98041.38;;;21.25;47.90
22181;BME280;11256;50.830;12.834;2022-07-06T02:40:46;98050.75;;;21.24;47.23
22181;BME280;11256;50.830;12.834;2022-07-06T02:45:47;98053.59;;;21.15;47.82
22181;BME280;11256;50.830;12.834;2022-07-06T02:50:47;98047.06;;;21.08;47.59
22181;BME280;11256;50.830;12.834;2022-07-06T02:55:48;98047.59;;;21.01;47.94
22181;BME280;11256;50.830;12.834;2022-07-06T03:00:49;98044.25;;;20.96;48.03
22181;BME280;11256;50.830;12.834;2022-07-06T03:05:50;98054.69;;;20.90;47.91
22181;BME280;11256;50.830;12.834;2022-07-06T03:10:52;98051.47;;;20.80;48.13
22181;BME280;11256;50.830;12.834;2022-07-06T03:15:53;98055.47;;;20.70;48.58
22181;BME280;11256;50.830;12.834;2022-07-06T03:20:54;98067.50;;;20.66;48.47
22181;BME280;11256;50.830;12.834;2022-07-06T03:25:55;98067.91;;;20.56;48.72
22181;BME280;11256;50.830;12.834;2022-07-06T03:30:56;98062.13;;;20.49;48.90
22181;BME280;11256;50.830;12.834;2022-07-06T03:35:57;98064.13;;;20.40;49.07
22181;BME280;11256;50.830;12.834;2022-07-06T03:40:58;98063.03;;;20.32;48.96
22181;BME280;11256;50.830;12.834;2022-07-06T03:45:59;98078.94;;;20.27;48.94
22181;BME280;11256;50.830;12.834;2022-07-06T03:51:01;98072.69;;;20.18;49.30
22181;BME280;11256;50.830;12.834;2022-07-06T03:56:01;98076.78;;;20.12;49.11
22181;BME280;11256;50.830;12.834;2022-07-06T04:01:21;98081.16;;;20.04;49.29
22181;BME280;11256;50.830;12.834;2022-07-06T04:06:22;98070.38;;;19.91;49.59
22181;BME280;11256;50.830;12.834;2022-07-06T04:11:23;98081.56;;;19.86;49.20
22181;BME280;11256;50.830;12.834;2022-07-06T04:16:24;98088.38;;;19.80;49.75
22181;BME280;11256;50.830;12.834;2022-07-06T04:21:25;98089.69;;;19.74;49.18
22181;BME280;11256;50.830;12.834;2022-07-06T04:26:26;98098.41;;;19.76;49.60
22181;BME280;11256;50.830;12.834;2022-07-06T04:31:27;98097.13;;;19.73;50.10
22181;BME280;11256;50.830;12.834;2022-07-06T04:36:28;98096.19;;;19.69;50.07
22181;BME280;11256;50.830;12.834;2022-07-06T04:41:29;98102.16;;;19.71;49.77
22181;BME280;11256;50.830;12.834;2022-07-06T04:46:30;98097.00;;;19.70;49.41
22181;BME280;11256;50.830;12.834;2022-07-06T04:51:32;98114.94;;;19.76;50.75
22181;BME280;11256;50.830;12.834;2022-07-06T04:56:33;98118.19;;;19.78;50.60
22181;BME280;11256;50.830;12.834;2022-07-06T05:01:34;98115.38;;;19.86;50.33
22181;BME280;11256;50.830;12.834;2022-07-06T05:06:34;98126.53;;;19.90;50.39
22181;BME280;11256;50.830;12.834;2022-07-06T05:11:35;98121.03;;;19.90;49.81
22181;BME280;11256;50.830;12.834;2022-07-06T05:16:38;98137.38;;;19.95;50.18
22181;BME280;11256;50.830;12.834;2022-07-06T05:21:38;98134.63;;;19.95;49.91
22181;BME280;11256;50.830;12.834;2022-07-06T05:26:42;98148.84;;;19.97;50.09
22181;BME280;11256;50.830;12.834;2022-07-06T05:31:42;98134.50;;;19.83;50.32
22181;BME280;11256;50.830;12.834;2022-07-06T05:36:43;98153.69;;;20.00;50.24
22181;BME280;11256;50.830;12.834;2022-07-06T05:41:44;98171.53;;;19.94;50.25
22181;BME280;11256;50.830;12.834;2022-07-06T05:46:45;98174.75;;;19.96;49.69
22181;BME280;11256;50.830;12.834;2022-07-06T05:51:45;98158.41;;;19.91;50.10
22181;BME280;11256;50.830;12.834;2022-07-06T05:56:46;98156.16;;;19.84;50.50
22181;BME280;11256;50.830;12.834;2022-07-06T06:01:47;98176.22;;;19.93;50.59
22181;BME280;11256;50.830;12.834;2022-07-06T06:06:53;98181.88;;;19.97;50.18
22181;BME280;11256;50.830;12.834;2022-07-06T06:11:53;98183.00;;;19.96;50.09
22181;BME280;11256;50.830;12.834;2022-07-06T06:16:54;98195.78;;;20.09;50.18
22181;BME280;11256;50.830;12.834;2022-07-06T06:21:54;98199.94;;;20.15;49.86
22181;BME280;11256;50.830;12.834;2022-07-06T06:26:55;98204.31;;;20.24;49.48
22181;BME280;11256;50.830;12.834;2022-07-06T06:31:55;98214.47;;;20.32;49.62
22181;BME280;11256;50.830;12.834;2022-07-06T06:36:55;98202.09;;;20.47;48.57
22181;BME280;11256;50.830;12.834;2022-07-06T06:41:55;98214.34;;;20.58;49.64
22181;BME280;11256;50.830;12.834;2022-07-06T06:46:56;98219.75;;;20.75;48.56
22181;BME280;11256;50.830;12.834;2022-07-06T06:51:56;98216.16;;;20.83;48.79
22181;BME280;11256;50.830;12.834;2022-07-06T06:56:56;98227.88;;;21.09;49.86
22181;BME280;11256;50.830;12.834;2022-07-06T07:01:57;98231.81;;;21.40;50.33
22181;BME280;11256;50.830;12.834;2022-07-06T07:06:57;98233.41;;;21.62;47.42
22181;BME280;11256;50.830;12.834;2022-07-06T07:11:58;98234.25;;;21.95;46.69
22181;BME280;11256;50.830;12.834;2022-07-06T07:16:58;98233.19;;;22.20;48.11
22181;BME280;11256;50.830;12.834;2022-07-06T07:21:58;98236.03;;;22.68;47.60
22181;BME280;11256;50.830;12.834;2022-07-06T07:26:59;98242.69;;;23.15;46.21
22181;BME280;11256;50.830;12.834;2022-07-06T07:31:59;98247.28;;;23.35;45.34
22181;BME280;11256;50.830;12.834;2022-07-06T07:37:00;98247.75;;;23.37;45.38
22181;BME280;11256;50.830;12.834;2022-07-06T07:42:00;98262.44;;;23.65;44.79
22181;BME280;11256;50.830;12.834;2022-07-06T07:47:00;98247.13;;;23.83;43.76
22181;BME280;11256;50.830;12.834;2022-07-06T07:52:01;98261.34;;;24.09;43.24
22181;BME280;11256;50.830;12.834;2022-07-06T07:57:01;98250.38;;;24.12;43.83
22181;BME280;11256;50.830;12.834;2022-07-06T08:02:02;98245.47;;;24.21;43.57
22181;BME280;11256;50.830;12.834;2022-07-06T08:07:02;98244.84;;;24.28;43.42
22181;BME280;11256;50.830;12.834;2022-07-06T08:12:03;98252.19;;;24.36;43.53
22181;BME280;11256;50.830;12.834;2022-07-06T08:17:03;98244.63;;;24.64;43.46
22181;BME280;11256;50.830;12.834;2022-07-06T08:22:04;98230.50;;;24.69;42.56
22181;BME280;11256;50.830;12.834;2022-07-06T08:27:07;98245.72;;;24.75;42.52
22181;BME280;11256;50.830;12.834;2022-07-06T08:32:07;98230.94;;;24.55;42.41
22181;BME280;11256;50.830;12.834;2022-07-06T08:37:07;98236.19;;;24.45;42.20
22181;BME280;11256;50.830;12.834;2022-07-06T08:42:09;98242.28;;;24.35;42.45
22181;BME280;11256;50.830;12.834;2022-07-06T08:47:10;98240.88;;;24.13;42.51
22181;BME280;11256;50.830;12.834;2022-07-06T08:52:15;98245.94;;;23.96;42.31
22181;BME280;11256;50.830;12.834;2022-07-06T08:57:16;98246.16;;;24.03;42.74
22181;BME280;11256;50.830;12.834;2022-07-06T09:02:17;98249.94;;;24.26;42.98
22181;BME280;11256;50.830;12.834;2022-07-06T09:07:18;98248.91;;;24.77;43.03
22181;BME280;11256;50.830;12.834;2022-07-06T09:12:19;98251.47;;;25.16;42.72
22181;BME280;11256;50.830;12.834;2022-07-06T09:17:19;98246.72;;;25.51;41.42
22181;BME280;11256;50.830;12.834;2022-07-06T09:22:28;98241.88;;;25.83;41.43
22181;BME280;11256;50.830;12.834;2022-07-06T09:27:30;98238.56;;;26.15;41.09
22181;BME280;11256;50.830;12.834;2022-07-06T09:32:34;98239.06;;;26.62;40.26
22181;BME280;11256;50.830;12.834;2022-07-06T09:37:37;98245.47;;;27.15;39.11
22181;BME280;11256;50.830;12.834;2022-07-06T09:42:38;98235.00;;;27.31;38.45
22181;BME280;11256;50.830;12.834;2022-07-06T09:47:38;98243.38;;;27.31;38.11
22181;BME280;11256;50.830;12.834;2022-07-06T09:52:41;98246.78;;;27.21;37.91
22181;BME280;11256;50.830;12.834;2022-07-06T09:57:52;98230.84;;;27.18;38.19
22181;BME280;11256;50.830;12.834;2022-07-06T10:02:53;98237.69;;;27.24;38.02
22181;BME280;11256;50.830;12.834;2022-07-06T10:07:56;98235.47;;;27.36;38.13
22181;BME280;11256;50.830;12.834;2022-07-06T10:12:57;98222.91;;;27.20;37.66
22181;BME280;11256;50.830;12.834;2022-07-06T10:17:59;98223.97;;;27.38;37.88
22181;BME280;11256;50.830;12.834;2022-07-06T10:23:01;98214.44;;;27.39;37.99
22181;BME280;11256;50.830;12.834;2022-07-06T10:28:02;98215.44;;;27.24;38.05
22181;BME280;11256;50.830;12.834;2022-07-06T10:33:03;98228.59;;;27.27;37.45
22181;BME280;11256;50.830;12.834;2022-07-06T10:38:05;98221.84;;;27.02;37.84
22181;BME280;11256;50.830;12.834;2022-07-06T10:43:08;98208.00;;;26.83;37.58
22181;BME280;11256;50.830;12.834;2022-07-06T10:53:14;98217.91;;;26.58;37.89
22181;BME280;11256;50.830;12.834;2022-07-06T10:58:14;98213.97;;;26.59;38.32
22181;BME280;11256;50.830;12.834;2022-07-06T11:08:57;98193.31;;;26.60;35.36
22181;BME280;11256;50.830;12.834;2022-07-06T11:14:04;98198.94;;;26.63;37.56
22181;BME280;11256;50.830;12.834;2022-07-06T11:19:11;98171.94;;;26.64;37.47
22181;BME280;11256;50.830;12.834;2022-07-06T11:24:14;98201.78;;;26.67;37.20
22181;BME280;11256;50.830;12.834;2022-07-06T11:29:16;98185.69;;;26.79;37.79
22181;BME280;11256;50.830;12.834;2022-07-06T11:34:19;98183.38;;;26.85;37.25
22181;BME280;11256;50.830;12.834;2022-07-06T11:39:20;98193.56;;;27.26;37.68
22181;BME280;11256;50.830;12.834;2022-07-06T11:44:20;98199.75;;;27.42;37.04
22181;BME280;11256;50.830;12.834;2022-07-06T11:49:20;98191.06;;;27.47;36.45
22181;BME280;11256;50.830;12.834;2022-07-06T11:54:22;98201.16;;;27.58;35.78
22181;BME280;11256;50.830;12.834;2022-07-06T11:59:25;98198.81;;;27.60;35.98
22181;BME280;11256;50.830;12.834;2022-07-06T12:04:26;98179.69;;;27.59;35.25
22181;BME280;11256;50.830;12.834;2022-07-06T12:09:29;98180.56;;;27.66;36.05
22181;BME280;11256;50.830;12.834;2022-07-06T12:14:32;98186.84;;;27.89;35.89
22181;BME280;11256;50.830;12.834;2022-07-06T12:19:33;98158.41;;;28.50;34.78
22181;BME280;11256;50.830;12.834;2022-07-06T12:24:35;98170.31;;;28.47;35.16
22181;BME280;11256;50.830;12.834;2022-07-06T12:29:36;98165.56;;;28.51;35.24
22181;BME280;11256;50.830;12.834;2022-07-06T12:34:36;98167.31;;;28.66;35.20
22181;BME280;11256;50.830;12.834;2022-07-06T12:39:44;98149.16;;;28.93;34.79
22181;BME280;11256;50.830;12.834;2022-07-06T12:44:50;98160.09;;;28.65;32.91
22181;BME280;11256;50.830;12.834;2022-07-06T12:50:05;98147.34;;;28.67;33.00
22181;BME280;11256;50.830;12.834;2022-07-06T12:55:06;98151.00;;;28.75;34.05
22181;BME280;11256;50.830;12.834;2022-07-06T13:00:08;98141.41;;;28.69;34.42
22181;BME280;11256;50.830;12.834;2022-07-06T13:05:11;98141.94;;;28.92;34.21
22181;BME280;11256;50.830;12.834;2022-07-06T13:10:12;98138.81;;;28.97;34.31
22181;BME280;11256;50.830;12.834;2022-07-06T13:15:13;98145.00;;;29.27;33.80
22181;BME280;11256;50.830;12.834;2022-07-06T13:20:14;98137.38;;;29.27;34.15
22181;BME280;11256;50.830;12.834;2022-07-06T13:25:16;98139.13;;;29.53;33.95
22181;BME280;11256;50.830;12.834;2022-07-06T13:30:17;98132.69;;;29.42;34.02
22181;BME280;11256;50.830;12.834;2022-07-06T13:35:17;98135.88;;;29.44;33.90
22181;BME280;11256;50.830;12.834;2022-07-06T13:40:18;98136.66;;;29.41;34.19
22181;BME280;11256;50.830;12.834;2022-07-06T13:45:18;98132.38;;;29.54;33.43
22181;BME280;11256;50.830;12.834;2022-07-06T13:50:19;98127.78;;;29.21;30.77
22181;BME280;11256;50.830;12.834;2022-07-06T13:55:19;98127.91;;;29.46;33.28
22181;BME280;11256;50.830;12.834;2022-07-06T14:00:19;98125.97;;;29.57;33.42
22181;BME280;11256;50.830;12.834;2022-07-06T14:05:20;98116.03;;;29.66;33.55
22181;BME280;11256;50.830;12.834;2022-07-06T14:10:20;98115.22;;;29.55;32.28
22181;BME280;11256;50.830;12.834;2022-07-06T14:15:20;98109.63;;;29.59;32.83
22181;BME280;11256;50.830;12.834;2022-07-06T14:20:21;98104.78;;;29.52;34.90
22181;BME280;11256;50.830;12.834;2022-07-06T14:25:22;98120.06;;;29.76;33.62
22181;BME280;11256;50.830;12.834;2022-07-06T14:30:22;98095.28;;;29.60;31.77
22181;BME280;11256;50.830;12.834;2022-07-06T14:35:23;98107.28;;;29.75;36.67
22181;BME280;11256;50.830;12.834;2022-07-06T14:40:24;98090.41;;;29.47;32.52
22181;BME280;11256;50.830;12.834;2022-07-06T14:45:25;98083.41;;;29.02;31.48
22181;BME280;11256;50.830;12.834;2022-07-06T14:50:26;98094.72;;;29.30;31.90
22181;BME280;11256;50.830;12.834;2022-07-06T14:55:26;98083.94;;;29.32;32.23
22181;BME280;11256;50.830;12.834;2022-07-06T15:00:27;98086.78;;;29.36;32.45
22181;BME280;11256;50.830;12.834;2022-07-06T15:05:27;98087.16;;;29.31;31.96
22181;BME280;11256;50.830;12.834;2022-07-06T15:10:28;98085.13;;;29.28;31.82
22181;BME280;11256;50.830;12.834;2022-07-06T15:15:28;98092.75;;;29.38;32.07
22181;BME280;11256;50.830;12.834;2022-07-06T15:20:29;98097.53;;;29.41;31.68
22181;BME280;11256;50.830;12.834;2022-07-06T15:25:29;98080.75;;;29.34;31.72
22181;BME280;11256;50.830;12.834;2022-07-06T15:30:29;98091.16;;;29.37;31.07
22181;BME280;11256;50.830;12.834;2022-07-06T15:35:33;98077.94;;;29.27;30.64
22181;BME280;11256;50.830;12.834;2022-07-06T15:40:33;98069.50;;;29.13;30.73
22181;BME280;11256;50.830;12.834;2022-07-06T15:45:40;98074.28;;;29.09;30.96
22181;BME280;11256;50.830;12.834;2022-07-06T15:50:40;98081.84;;;29.05;29.75
22181;BME280;11256;50.830;12.834;2022-07-06T15:55:40;98068.56;;;28.88;30.37
22181;BME280;11256;50.830;12.834;2022-07-06T16:00:41;98042.22;;;28.82;30.63
22181;BME280;11256;50.830;12.834;2022-07-06T16:05:41;98042.25;;;28.89;31.26
22181;BME280;11256;50.830;12.834;2022-07-06T16:10:42;98054.03;;;28.61;30.96
22181;BME280;11256;50.830;12.834;2022-07-06T16:15:42;98043.72;;;28.69;30.15
22181;BME280;11256;50.830;12.834;2022-07-06T16:20:42;98046.94;;;28.71;29.97
22181;BME280;11256;50.830;12.834;2022-07-06T16:25:43;98041.34;;;28.71;29.71
22181;BME280;11256;50.830;12.834;2022-07-06T16:30:43;98043.69;;;28.62;29.83
22181;BME280;11256;50.830;12.834;2022-07-06T16:35:43;98040.00;;;28.44;30.04
22181;BME280;11256;50.830;12.834;2022-07-06T16:40:45;98032.16;;;28.16;30.55
22181;BME280;11256;50.830;12.834;2022-07-06T16:45:45;98032.16;;;28.16;29.91
22181;BME280;11256;50.830;12.834;2022-07-06T16:50:46;98044.94;;;28.21;30.20
22181;BME280;11256;50.830;12.834;2022-07-06T16:55:46;98043.31;;;28.13;30.22
22181;BME280;11256;50.830;12.834;2022-07-06T17:00:46;98040.88;;;28.08;29.92
22181;BME280;11256;50.830;12.834;2022-07-06T17:05:47;98052.78;;;28.05;29.83
22181;BME280;11256;50.830;12.834;2022-07-06T17:10:47;98040.38;;;27.99;29.88
22181;BME280;11256;50.830;12.834;2022-07-06T17:15:47;98036.69;;;27.88;29.82
22181;BME280;11256;50.830;12.834;2022-07-06T17:20:48;98034.69;;;27.81;29.78
22181;BME280;11256;50.830;12.834;2022-07-06T17:25:49;98044.53;;;27.75;30.26
22181;BME280;11256;50.830;12.834;2022-07-06T17:30:49;98030.84;;;27.60;30.09
22181;BME280;11256;50.830;12.834;2022-07-06T17:35:50;98052.69;;;27.54;30.17
22181;BME280;11256;50.830;12.834;2022-07-06T17:40:50;98042.63;;;27.46;30.13
22181;BME280;11256;50.830;12.834;2022-07-06T17:45:51;98053.50;;;27.22;30.11
22181;BME280;11256;50.830;12.834;2022-07-06T17:50:51;98059.28;;;27.10;30.57
22181;BME280;11256;50.830;12.834;2022-07-06T17:55:51;98068.25;;;26.96;30.52
22181;BME280;11256;50.830;12.834;2022-07-06T18:00:52;98069.81;;;26.94;30.68
22181;BME280;11256;50.830;12.834;2022-07-06T18:05:53;98067.28;;;26.82;31.18
22181;BME280;11256;50.830;12.834;2022-07-06T18:10:53;98043.22;;;26.67;30.90
22181;BME280;11256;50.830;12.834;2022-07-06T18:15:53;98059.47;;;26.65;30.74
22181;BME280;11256;50.830;12.834;2022-07-06T18:20:54;98066.09;;;26.57;30.66
22181;BME280;11256;50.830;12.834;2022-07-06T18:25:56;98053.25;;;26.49;30.60
22181;BME280;11256;50.830;12.834;2022-07-06T18:30:57;98063.41;;;26.38;30.57
22181;BME280;11256;50.830;12.834;2022-07-06T18:35:57;98064.47;;;26.30;30.87
22181;BME280;11256;50.830;12.834;2022-07-06T18:40:58;98069.47;;;26.17;31.38
22181;BME280;11256;50.830;12.834;2022-07-06T18:45:58;98074.41;;;26.05;31.28
22181;BME280;11256;50.830;12.834;2022-07-06T18:50:58;98066.09;;;25.86;31.53
22181;BME280;11256;50.830;12.834;2022-07-06T18:55:59;98078.97;;;25.75;31.81
22181;BME280;11256;50.830;12.834;2022-07-06T19:00:59;98080.03;;;25.67;31.65
22181;BME280;11256;50.830;12.834;2022-07-06T19:05:59;98072.19;;;25.50;31.72
22181;BME280;11256;50.830;12.834;2022-07-06T19:11:00;98080.81;;;25.45;32.17
22181;BME280;11256;50.830;12.834;2022-07-06T19:16:00;98082.22;;;25.35;32.09
22181;BME280;11256;50.830;12.834;2022-07-06T19:21:01;98075.53;;;25.21;31.75
22181;BME280;11256;50.830;12.834;2022-07-06T19:26:02;98076.94;;;25.11;32.33
22181;BME280;11256;50.830;12.834;2022-07-06T19:31:03;98087.34;;;24.99;32.38
22181;BME280;11256;50.830;12.834;2022-07-06T19:36:04;98081.53;;;24.85;32.49
22181;BME280;11256;50.830;12.834;2022-07-06T19:41:04;98077.25;;;24.72;32.85
22181;BME280;11256;50.830;12.834;2022-07-06T19:46:04;98099.00;;;24.70;32.95
22181;BME280;11256;50.830;12.834;2022-07-06T19:51:05;98101.41;;;24.56;32.96
22181;BME280;11256;50.830;12.834;2022-07-06T19:56:08;98104.75;;;24.46;33.00
22181;BME280;11256;50.830;12.834;2022-07-06T20:01:10;98103.78;;;24.38;33.19
22181;BME280;11256;50.830;12.834;2022-07-06T20:06:10;98106.28;;;24.28;33.28
22181;BME280;11256;50.830;12.834;2022-07-06T20:11:11;98103.97;;;24.14;33.64
22181;BME280;11256;50.830;12.834;2022-07-06T20:16:11;98096.38;;;23.96;33.84
22181;BME280;11256;50.830;12.834;2022-07-06T20:21:13;98098.84;;;23.85;34.09
22181;BME280;11256;50.830;12.834;2022-07-06T20:26:13;98102.06;;;23.72;34.26
22181;BME280;11256;50.830;12.834;2022-07-06T20:31:14;98110.53;;;23.63;34.17
22181;BME280;11256;50.830;12.834;2022-07-06T20:36:14;98096.66;;;23.48;34.58
22181;BME280;11256;50.830;12.834;2022-07-06T20:41:15;98094.66;;;23.33;35.15
22181;BME280;11256;50.830;12.834;2022-07-06T20:46:16;98103.22;;;23.28;35.03
22181;BME280;11256;50.830;12.834;2022-07-06T20:51:16;98099.31;;;23.17;35.08
22181;BME280;11256;50.830;12.834;2022-07-06T20:56:17;98106.25;;;23.11;35.18
22181;BME280;11256;50.830;12.834;2022-07-06T21:01:17;98105.56;;;23.02;35.18
22181;BME280;11256;50.830;12.834;2022-07-06T21:06:17;98096.41;;;22.86;35.56
22181;BME280;11256;50.830;12.834;2022-07-06T21:11:18;98115.31;;;22.84;35.52
22181;BME280;11256;50.830;12.834;2022-07-06T21:16:19;98107.94;;;22.76;35.37
22181;BME280;11256;50.830;12.834;2022-07-06T21:21:19;98109.25;;;22.66;35.58
22181;BME280;11256;50.830;12.834;2022-07-06T21:26:20;98096.03;;;22.48;35.69
22181;BME280;11256;50.830;12.834;2022-07-06T21:31:20;98095.91;;;22.44;35.69
22181;BME280;11256;50.830;12.834;2022-07-06T21:36:20;98083.13;;;22.28;35.69
22181;BME280;11256;50.830;12.834;2022-07-06T21:41:21;98078.75;;;22.15;35.75
22181;BME280;11256;50.830;12.834;2022-07-06T21:46:21;98089.34;;;22.13;35.75
22181;BME280;11256;50.830;12.834;2022-07-06T21:51:22;98085.88;;;22.04;35.94
22181;BME280;11256;50.830;12.834;2022-07-06T21:56:22;98087.50;;;21.93;36.07
22181;BME280;11256;50.830;12.834;2022-07-06T22:01:22;98079.22;;;21.81;36.13
22181;BME280;11256;50.830;12.834;2022-07-06T22:06:23;98074.47;;;21.69;36.08
22181;BME280;11256;50.830;12.834;2022-07-06T22:11:23;98074.09;;;21.59;36.09
22181;BME280;11256;50.830;12.834;2022-07-06T22:16:24;98064.03;;;21.42;36.44
22181;BME280;11256;50.830;12.834;2022-07-06T22:21:26;98072.41;;;21.34;36.28
22181;BME280;11256;50.830;12.834;2022-07-06T22:26:26;98066.63;;;21.27;36.29
22181;BME280;11256;50.830;12.834;2022-07-06T22:31:27;98064.78;;;21.19;36.32
22181;BME280;11256;50.830;12.834;2022-07-06T22:36:27;98073.41;;;21.17;35.98
22181;BME280;11256;50.830;12.834;2022-07-06T22:41:34;98076.91;;;21.06;36.48
22181;BME280;11256;50.830;12.834;2022-07-06T22:46:35;98075.38;;;20.96;36.48
22181;BME280;11256;50.830;12.834;2022-07-06T22:51:36;98079.97;;;20.84;36.84
22181;BME280;11256;50.830;12.834;2022-07-06T22:56:36;98064.53;;;20.71;36.54
22181;BME280;11256;50.830;12.834;2022-07-06T23:01:37;98069.44;;;20.65;36.54
22181;BME280;11256;50.830;12.834;2022-07-06T23:06:37;98072.75;;;20.59;36.68
22181;BME280;11256;50.830;12.834;2022-07-06T23:11:37;98067.63;;;20.49;36.80
22181;BME280;11256;50.830;12.834;2022-07-06T23:16:38;98065.41;;;20.42;36.87
22181;BME280;11256;50.830;12.834;2022-07-06T23:21:39;98062.50;;;20.39;36.63
22181;BME280;11256;50.830;12.834;2022-07-06T23:26:39;98057.84;;;20.31;37.19
22181;BME280;11256;50.830;12.834;2022-07-06T23:31:39;98064.41;;;20.18;37.24
22181;BME280;11256;50.830;12.834;2022-07-06T23:36:40;98037.44;;;20.03;37.40
22181;BME280;11256;50.830;12.834;2022-07-06T23:41:40;98046.69;;;20.07;37.80
22181;BME280;11256;50.830;12.834;2022-07-06T23:46:40;98049.31;;;19.95;37.87
22181;BME280;11256;50.830;12.834;2022-07-06T23:51:41;98031.97;;;19.94;37.83
22181;BME280;11256;50.830;12.834;2022-07-06T23:56:41;98029.75;;;19.88;37.95
